createdAt,value
2019-01-26T00:09:55.014Z,24.30
2019-01-26T00:19:59.400Z,24.20
2019-01-26T00:30:09.839Z,24.20
2019-01-26T00:40:14.218Z,24.20
2019-01-26T00:50:18.672Z,24.20
2019-01-26T01:00:23.286Z,24.20
2019-01-26T01:10:27.851Z,24.30
2019-01-26T01:20:32.498Z,24.20
2019-01-26T01:30:36.971Z,24.20
2019-01-26T01:40:41.631Z,24.20
2019-01-26T01:50:46.027Z,24.20
2019-01-26T02:00:50.542Z,24.20
2019-01-26T02:10:54.921Z,24.20
2019-01-26T02:20:59.311Z,24.20
2019-01-26T02:31:03.567Z,24.20
2019-01-26T02:41:07.962Z,24.20
2019-01-26T02:51:12.394Z,24.20
2019-01-26T03:01:16.759Z,24.20
2019-01-26T03:11:21.233Z,24.20
2019-01-26T03:21:25.544Z,24.10
2019-01-26T03:31:29.921Z,24.20
2019-01-26T03:41:34.390Z,24.10
2019-01-26T03:51:38.755Z,24.10
2019-01-26T04:01:43.256Z,24.10
2019-01-26T04:11:47.576Z,24.10
2019-01-26T04:21:51.944Z,24.10
2019-01-26T04:31:56.350Z,24.10
2019-01-26T04:42:00.686Z,24.10
2019-01-26T04:52:05.405Z,24.10
2019-01-26T05:02:09.893Z,24.10
2019-01-26T05:12:14.286Z,24.10
2019-01-26T05:22:18.782Z,24.10
2019-01-26T05:32:23.284Z,24.10
2019-01-26T05:42:27.597Z,24.10
2019-01-26T05:52:32.052Z,24.10
2019-01-26T06:02:36.522Z,24.10
2019-01-26T06:12:40.849Z,24.10
2019-01-26T06:22:45.223Z,24.10
2019-01-26T06:32:49.646Z,24.10
2019-01-26T06:42:54.013Z,23.20
2019-01-26T06:52:58.525Z,21.10
2019-01-26T07:03:03.188Z,19.40
2019-01-26T07:13:07.646Z,20.40
2019-01-26T07:24:12.964Z,21.60
2019-01-26T07:34:17.400Z,23.90
2019-01-26T07:44:21.914Z,24.70
2019-01-26T07:54:26.420Z,24.80
2019-01-26T08:04:31.011Z,24.90
2019-01-26T08:14:35.470Z,24.90
2019-01-26T08:24:39.929Z,24.80
2019-01-26T08:34:44.628Z,24.80
2019-01-26T08:44:48.966Z,25.00
2019-01-26T08:54:53.770Z,25.00
2019-01-26T09:04:58.980Z,25.00
2019-01-26T09:15:03.527Z,25.20
2019-01-26T09:25:12.068Z,25.00
2019-01-26T09:35:16.474Z,24.90
2019-01-26T09:45:21.419Z,25.20
2019-01-26T09:55:26.019Z,25.40
2019-01-26T10:05:30.391Z,25.40
2019-01-26T10:15:35.072Z,25.40
2019-01-26T10:25:39.650Z,25.40
2019-01-26T10:36:04.037Z,25.40
2019-01-26T10:46:08.333Z,25.30
2019-01-26T10:56:12.738Z,25.20
2019-01-26T11:06:17.178Z,25.10
2019-01-26T11:16:21.864Z,24.90
2019-01-26T11:26:26.357Z,25.20
2019-01-26T11:36:30.861Z,25.90
2019-01-26T11:46:35.372Z,26.30
2019-01-26T11:56:44.291Z,26.50
2019-01-26T12:06:50.346Z,26.50
2019-01-26T12:16:55.006Z,26.40
2019-01-26T12:26:59.316Z,26.40
2019-01-26T12:37:03.702Z,26.40
2019-01-26T12:47:08.066Z,26.30
2019-01-26T12:57:12.609Z,26.20
2019-01-26T13:07:17.322Z,24.60
2019-01-26T13:17:22.128Z,23.80
2019-01-26T13:27:26.700Z,24.50
2019-01-26T13:37:31.131Z,24.90
2019-01-26T13:47:37.955Z,25.10
2019-01-26T13:57:42.116Z,25.20
2019-01-26T14:07:46.694Z,25.30
2019-01-26T14:17:51.287Z,25.30
2019-01-26T14:27:55.802Z,25.20
2019-01-26T14:38:00.217Z,24.90
2019-01-26T14:48:04.452Z,24.10
2019-01-26T14:58:11.451Z,24.40
2019-01-26T15:08:16.400Z,24.70
2019-01-26T15:18:20.762Z,24.70
2019-01-26T15:28:25.127Z,24.70
2019-01-26T15:38:29.556Z,24.70
2019-01-26T15:48:34.029Z,24.70
2019-01-26T15:58:38.397Z,24.70
2019-01-26T16:08:42.814Z,24.60
2019-01-26T16:18:47.230Z,24.70
2019-01-26T16:28:51.947Z,24.90
2019-01-26T16:38:56.467Z,24.90
2019-01-26T16:49:00.718Z,25.00
2019-01-26T16:59:05.439Z,25.10
2019-01-26T17:09:09.970Z,25.10
2019-01-26T17:19:14.451Z,25.10
2019-01-26T17:29:19.913Z,25.00
2019-01-26T17:39:24.272Z,24.10
2019-01-26T17:49:28.591Z,23.70
2019-01-26T17:59:32.937Z,24.20
2019-01-26T18:09:37.754Z,24.60
2019-01-26T18:19:42.490Z,24.60
2019-01-26T18:29:46.952Z,25.00
2019-01-26T18:39:51.519Z,25.00
2019-01-26T18:49:55.744Z,25.00
2019-01-26T19:00:00.166Z,25.00
2019-01-26T19:10:08.007Z,25.30
2019-01-26T19:20:14.373Z,25.40
2019-01-26T19:30:23.152Z,25.50
2019-01-26T19:40:27.706Z,25.50
2019-01-26T19:50:32.114Z,25.50
2019-01-26T20:00:36.534Z,25.40
2019-01-26T20:10:41.057Z,25.50
2019-01-26T20:20:45.862Z,25.50
2019-01-26T20:30:50.807Z,25.40
2019-01-26T20:40:55.292Z,25.50
2019-01-26T20:50:59.853Z,25.50
2019-01-26T21:01:05.250Z,25.30
2019-01-26T21:11:10.021Z,25.40
2019-01-26T21:21:14.984Z,25.40
2019-01-26T21:31:19.534Z,25.30
2019-01-26T21:41:24.307Z,25.30
2019-01-26T21:51:28.793Z,25.20
2019-01-26T22:01:38.241Z,25.30
2019-01-26T22:11:42.692Z,23.80
2019-01-26T22:21:47.706Z,22.70
2019-01-26T22:31:52.217Z,22.90
2019-01-26T22:41:57.091Z,23.70
2019-01-26T22:52:01.343Z,24.10
2019-01-26T23:02:08.392Z,24.30
2019-01-26T23:12:31.177Z,24.30
2019-01-26T23:22:47.727Z,24.30
2019-01-26T23:32:52.087Z,24.30
2019-01-26T23:42:56.460Z,24.30
2019-01-26T23:53:00.731Z,24.30
